Pagrindinis puslapis
METAR-TAF:

METAR-TAF

Oro uostai :

Kerdla, Estija

platuma: 58-59N, ilguma: 022-49E, Aukštis: 5 m

Dabartinis oras

Ataskaita buvo paskelbta 27 minutes, ne 09:50 UTC
Vėjas 11 kt iš Pietvakarių, svyruoja nuo Pietų ir Vakarų
Temperatūra 7°C
Drėgmė 76%
Slėgis 984 hPa
Matomumas 10 km arba daugiau
Išsisklaidę debesys ne aukštis 2700 ft
Apsiniaukę ne aukštis 3800 ft

METAR: EEKA 090950Z 22011KT 190V270 9999 SCT027 OVC038 07/03 Q0984

Laikas: 12:17 (10:17 UTC)

Prognozė

Ataskaita buvo paskelbta 6 valandos ir 17 minutes, ne 04:00 UTC
Prognozė galioja nuo 09 metu 05 UTC su 09 metu 11 UTC
Vėjas 15 kt iš Pietvakarių su gūsio iki 25 kt
Matomumas 10 km arba daugiau
Su prošvaistėmis ne aukštis 2000 ft
Laikinai
nuo 09 metu 05 UTC su 09 metu 11 UTC
Vėjas 18 kt iš Vakarų/Pietvakarių su gūsio iki 35 kt
Matomumas: 5000 m
Su prošvaistėmis ne aukštis 700 ft
Išsisklaidę debesys ne aukštis 1500 ft, Liūtiniai kamuoliniai debesys.
lietus

TAF: EEKA 090400Z 0905/0911 23015G25KT 9999 BKN020 TEMPO 0905/0911 24018G35KT 5000 SHRA BKN007 SCT015CB

Orai ataskaitas ir orų prognozės (METAR, TAF).

turimą stotys yra geltonos ir raudonos taškus žemėlapyje.

Perkelti pele per norėdami pamatyti stoties vardą.

Tada spustelėkite, norėdami matyti oro stebėjimo ir prognozės.

Norėdami pakeisti žemėlapį: spustelėkite ant žalios mygtukų su juodo kryžiaus žemyn,; žalią mygtuką su brūkšneliu, jei norite nutolinti; arba žalių rodyklių gretimoms žemėlapius.


METAR-TAF: